sensor_id;sensor_type;location;lat;lon;timestamp;P1;durP1;ratioP1;P2;durP2;ratioP2
40116;SDS011;25829;50.228;18.936;2024-03-07T00:01:43;16.27;;;9.70;;
40116;SDS011;25829;50.228;18.936;2024-03-07T00:04:45;17.10;;;9.47;;
40116;SDS011;25829;50.228;18.936;2024-03-07T00:07:47;15.03;;;8.87;;
40116;SDS011;25829;50.228;18.936;2024-03-07T00:10:48;16.27;;;9.87;;
40116;SDS011;25829;50.228;18.936;2024-03-07T00:13:49;17.17;;;9.20;;
40116;SDS011;25829;50.228;18.936;2024-03-07T00:16:50;17.53;;;9.67;;
40116;SDS011;25829;50.228;18.936;2024-03-07T00:19:50;14.37;;;9.53;;
40116;SDS011;25829;50.228;18.936;2024-03-07T00:22:51;15.20;;;9.57;;
40116;SDS011;25829;50.228;18.936;2024-03-07T00:25:52;15.33;;;9.50;;
40116;SDS011;25829;50.228;18.936;2024-03-07T00:28:54;15.73;;;10.23;;
40116;SDS011;25829;50.228;18.936;2024-03-07T00:31:55;14.17;;;9.40;;
40116;SDS011;25829;50.228;18.936;2024-03-07T00:34:56;16.40;;;10.13;;
40116;SDS011;25829;50.228;18.936;2024-03-07T00:37:59;17.27;;;10.40;;
40116;SDS011;25829;50.228;18.936;2024-03-07T00:41:00;17.37;;;10.40;;
40116;SDS011;25829;50.228;18.936;2024-03-07T00:44:01;18.90;;;11.50;;
40116;SDS011;25829;50.228;18.936;2024-03-07T00:47:02;25.40;;;14.07;;
40116;SDS011;25829;50.228;18.936;2024-03-07T00:50:03;16.37;;;9.93;;
40116;SDS011;25829;50.228;18.936;2024-03-07T00:53:05;23.70;;;13.63;;
40116;SDS011;25829;50.228;18.936;2024-03-07T00:56:05;21.07;;;12.70;;
40116;SDS011;25829;50.228;18.936;2024-03-07T00:59:06;24.27;;;12.47;;
40116;SDS011;25829;50.228;18.936;2024-03-07T01:02:07;25.43;;;12.20;;
40116;SDS011;25829;50.228;18.936;2024-03-07T01:05:09;19.37;;;11.67;;
40116;SDS011;25829;50.228;18.936;2024-03-07T01:08:15;18.73;;;11.13;;
40116;SDS011;25829;50.228;18.936;2024-03-07T01:11:18;21.73;;;12.40;;
40116;SDS011;25829;50.228;18.936;2024-03-07T01:14:21;20.70;;;12.50;;
40116;SDS011;25829;50.228;18.936;2024-03-07T01:17:22;21.53;;;12.40;;
40116;SDS011;25829;50.228;18.936;2024-03-07T01:20:24;21.83;;;12.50;;
40116;SDS011;25829;50.228;18.936;2024-03-07T01:23:28;18.43;;;11.87;;
40116;SDS011;25829;50.228;18.936;2024-03-07T01:26:30;24.27;;;13.00;;
40116;SDS011;25829;50.228;18.936;2024-03-07T01:29:30;18.80;;;11.97;;
40116;SDS011;25829;50.228;18.936;2024-03-07T01:32:34;18.20;;;12.03;;
40116;SDS011;25829;50.228;18.936;2024-03-07T01:35:34;22.83;;;11.70;;
40116;SDS011;25829;50.228;18.936;2024-03-07T01:38:35;18.33;;;12.00;;
40116;SDS011;25829;50.228;18.936;2024-03-07T01:41:36;21.07;;;12.53;;
40116;SDS011;25829;50.228;18.936;2024-03-07T01:44:45;18.53;;;12.03;;
40116;SDS011;25829;50.228;18.936;2024-03-07T01:47:47;21.07;;;11.80;;
40116;SDS011;25829;50.228;18.936;2024-03-07T01:50:48;21.40;;;12.63;;
40116;SDS011;25829;50.228;18.936;2024-03-07T01:53:49;20.93;;;11.87;;
40116;SDS011;25829;50.228;18.936;2024-03-07T01:56:50;18.77;;;11.70;;
40116;SDS011;25829;50.228;18.936;2024-03-07T01:59:51;21.33;;;13.60;;
40116;SDS011;25829;50.228;18.936;2024-03-07T02:02:52;23.93;;;13.23;;
40116;SDS011;25829;50.228;18.936;2024-03-07T02:05:53;24.63;;;14.10;;
40116;SDS011;25829;50.228;18.936;2024-03-07T02:08:54;24.40;;;15.00;;
40116;SDS011;25829;50.228;18.936;2024-03-07T02:11:55;24.70;;;14.07;;
40116;SDS011;25829;50.228;18.936;2024-03-07T02:14:56;23.30;;;13.53;;
40116;SDS011;25829;50.228;18.936;2024-03-07T02:17:58;23.30;;;13.80;;
40116;SDS011;25829;50.228;18.936;2024-03-07T02:20:59;21.97;;;14.30;;
40116;SDS011;25829;50.228;18.936;2024-03-07T02:24:00;24.27;;;14.30;;
40116;SDS011;25829;50.228;18.936;2024-03-07T02:27:01;24.23;;;13.77;;
40116;SDS011;25829;50.228;18.936;2024-03-07T02:30:02;24.43;;;15.13;;
40116;SDS011;25829;50.228;18.936;2024-03-07T02:33:03;19.93;;;13.30;;
40116;SDS011;25829;50.228;18.936;2024-03-07T02:36:07;19.00;;;13.90;;
40116;SDS011;25829;50.228;18.936;2024-03-07T02:39:08;22.83;;;13.83;;
40116;SDS011;25829;50.228;18.936;2024-03-07T02:42:10;21.03;;;13.67;;
40116;SDS011;25829;50.228;18.936;2024-03-07T02:45:12;23.27;;;13.83;;
40116;SDS011;25829;50.228;18.936;2024-03-07T02:48:16;23.23;;;14.33;;
40116;SDS011;25829;50.228;18.936;2024-03-07T02:51:20;23.17;;;14.07;;
40116;SDS011;25829;50.228;18.936;2024-03-07T02:54:21;22.27;;;13.97;;
40116;SDS011;25829;50.228;18.936;2024-03-07T02:57:22;24.60;;;15.53;;
40116;SDS011;25829;50.228;18.936;2024-03-07T03:00:23;25.37;;;14.67;;
40116;SDS011;25829;50.228;18.936;2024-03-07T03:03:32;21.77;;;14.57;;
40116;SDS011;25829;50.228;18.936;2024-03-07T03:06:33;22.83;;;14.50;;
40116;SDS011;25829;50.228;18.936;2024-03-07T03:09:34;22.13;;;15.07;;
40116;SDS011;25829;50.228;18.936;2024-03-07T03:12:40;29.37;;;16.43;;
40116;SDS011;25829;50.228;18.936;2024-03-07T03:15:40;23.03;;;14.93;;
40116;SDS011;25829;50.228;18.936;2024-03-07T03:18:41;28.30;;;16.57;;
40116;SDS011;25829;50.228;18.936;2024-03-07T03:21:42;25.90;;;15.07;;
40116;SDS011;25829;50.228;18.936;2024-03-07T03:24:48;23.07;;;14.83;;
40116;SDS011;25829;50.228;18.936;2024-03-07T03:27:49;23.43;;;14.20;;
40116;SDS011;25829;50.228;18.936;2024-03-07T03:30:52;24.53;;;14.90;;
40116;SDS011;25829;50.228;18.936;2024-03-07T03:33:53;16.43;;;10.47;;
40116;SDS011;25829;50.228;18.936;2024-03-07T03:36:53;21.83;;;13.60;;
40116;SDS011;25829;50.228;18.936;2024-03-07T03:39:54;25.57;;;15.10;;
40116;SDS011;25829;50.228;18.936;2024-03-07T03:42:55;23.80;;;14.17;;
40116;SDS011;25829;50.228;18.936;2024-03-07T03:45:56;29.43;;;15.07;;
40116;SDS011;25829;50.228;18.936;2024-03-07T03:48:57;26.13;;;15.73;;
40116;SDS011;25829;50.228;18.936;2024-03-07T03:51:58;23.97;;;14.30;;
40116;SDS011;25829;50.228;18.936;2024-03-07T03:59:42;22.97;;;12.47;;
40116;SDS011;25829;50.228;18.936;2024-03-07T04:03:22;21.80;;;13.43;;
40116;SDS011;25829;50.228;18.936;2024-03-07T04:06:22;22.77;;;14.00;;
40116;SDS011;25829;50.228;18.936;2024-03-07T04:09:24;15.07;;;11.23;;
40116;SDS011;25829;50.228;18.936;2024-03-07T04:12:24;22.40;;;12.13;;
40116;SDS011;25829;50.228;18.936;2024-03-07T04:15:26;22.17;;;12.73;;
40116;SDS011;25829;50.228;18.936;2024-03-07T04:18:31;19.53;;;11.00;;
40116;SDS011;25829;50.228;18.936;2024-03-07T04:21:32;18.03;;;12.40;;
40116;SDS011;25829;50.228;18.936;2024-03-07T04:24:33;15.87;;;10.37;;
40116;SDS011;25829;50.228;18.936;2024-03-07T04:27:36;19.07;;;11.50;;
40116;SDS011;25829;50.228;18.936;2024-03-07T04:30:40;22.20;;;13.00;;
40116;SDS011;25829;50.228;18.936;2024-03-07T04:33:40;19.73;;;13.63;;
40116;SDS011;25829;50.228;18.936;2024-03-07T04:36:41;20.03;;;12.87;;
40116;SDS011;25829;50.228;18.936;2024-03-07T04:39:42;21.63;;;12.37;;
40116;SDS011;25829;50.228;18.936;2024-03-07T04:42:43;18.57;;;12.53;;
40116;SDS011;25829;50.228;18.936;2024-03-07T04:45:44;18.60;;;11.47;;
40116;SDS011;25829;50.228;18.936;2024-03-07T04:48:45;21.37;;;12.67;;
40116;SDS011;25829;50.228;18.936;2024-03-07T04:51:46;23.00;;;13.20;;
40116;SDS011;25829;50.228;18.936;2024-03-07T04:54:54;18.20;;;12.10;;
40116;SDS011;25829;50.228;18.936;2024-03-07T04:57:55;18.00;;;12.23;;
40116;SDS011;25829;50.228;18.936;2024-03-07T05:00:56;23.03;;;12.93;;
40116;SDS011;25829;50.228;18.936;2024-03-07T05:03:57;20.67;;;13.23;;
40116;SDS011;25829;50.228;18.936;2024-03-07T05:06:57;20.77;;;12.43;;
40116;SDS011;25829;50.228;18.936;2024-03-07T05:09:59;18.30;;;12.13;;
40116;SDS011;25829;50.228;18.936;2024-03-07T05:13:03;18.73;;;13.10;;
40116;SDS011;25829;50.228;18.936;2024-03-07T05:16:06;21.43;;;13.93;;
40116;SDS011;25829;50.228;18.936;2024-03-07T05:19:06;21.97;;;14.03;;
40116;SDS011;25829;50.228;18.936;2024-03-07T05:22:08;21.50;;;14.87;;
40116;SDS011;25829;50.228;18.936;2024-03-07T05:25:14;21.40;;;13.83;;
40116;SDS011;25829;50.228;18.936;2024-03-07T05:28:18;21.37;;;13.53;;
40116;SDS011;25829;50.228;18.936;2024-03-07T05:31:22;19.83;;;13.93;;
40116;SDS011;25829;50.228;18.936;2024-03-07T05:34:23;24.20;;;14.67;;
40116;SDS011;25829;50.228;18.936;2024-03-07T05:37:24;19.03;;;13.53;;
40116;SDS011;25829;50.228;18.936;2024-03-07T05:40:25;24.17;;;15.00;;
40116;SDS011;25829;50.228;18.936;2024-03-07T05:43:26;20.90;;;13.83;;
40116;SDS011;25829;50.228;18.936;2024-03-07T05:46:26;24.27;;;14.30;;
40116;SDS011;25829;50.228;18.936;2024-03-07T05:49:28;18.93;;;13.37;;
40116;SDS011;25829;50.228;18.936;2024-03-07T05:52:31;24.33;;;14.57;;
40116;SDS011;25829;50.228;18.936;2024-03-07T05:55:32;20.57;;;14.33;;
40116;SDS011;25829;50.228;18.936;2024-03-07T05:58:33;24.07;;;14.33;;
40116;SDS011;25829;50.228;18.936;2024-03-07T06:01:38;19.37;;;13.30;;
40116;SDS011;25829;50.228;18.936;2024-03-07T06:04:39;22.83;;;15.60;;
40116;SDS011;25829;50.228;18.936;2024-03-07T06:07:39;27.77;;;16.53;;
40116;SDS011;25829;50.228;18.936;2024-03-07T06:10:41;24.27;;;14.67;;
40116;SDS011;25829;50.228;18.936;2024-03-07T06:13:42;23.93;;;13.80;;
40116;SDS011;25829;50.228;18.936;2024-03-07T06:16:43;23.17;;;14.00;;
40116;SDS011;25829;50.228;18.936;2024-03-07T06:19:44;23.50;;;14.57;;
40116;SDS011;25829;50.228;18.936;2024-03-07T06:22:45;23.90;;;13.73;;
40116;SDS011;25829;50.228;18.936;2024-03-07T06:25:46;20.47;;;13.10;;
40116;SDS011;25829;50.228;18.936;2024-03-07T06:28:47;22.93;;;12.33;;
40116;SDS011;25829;50.228;18.936;2024-03-07T06:31:49;21.43;;;13.43;;
40116;SDS011;25829;50.228;18.936;2024-03-07T06:34:50;22.83;;;13.57;;
40116;SDS011;25829;50.228;18.936;2024-03-07T06:37:51;21.17;;;13.53;;
40116;SDS011;25829;50.228;18.936;2024-03-07T06:40:51;22.73;;;14.00;;
40116;SDS011;25829;50.228;18.936;2024-03-07T06:43:52;21.70;;;14.33;;
40116;SDS011;25829;50.228;18.936;2024-03-07T06:46:55;20.53;;;13.93;;
40116;SDS011;25829;50.228;18.936;2024-03-07T06:49:56;25.63;;;13.97;;
40116;SDS011;25829;50.228;18.936;2024-03-07T06:52:56;24.13;;;14.57;;
40116;SDS011;25829;50.228;18.936;2024-03-07T06:55:57;21.27;;;14.80;;
40116;SDS011;25829;50.228;18.936;2024-03-07T06:58:59;21.77;;;14.87;;
40116;SDS011;25829;50.228;18.936;2024-03-07T07:02:04;30.07;;;15.70;;
40116;SDS011;25829;50.228;18.936;2024-03-07T07:05:06;22.37;;;13.73;;
40116;SDS011;25829;50.228;18.936;2024-03-07T07:08:11;24.70;;;15.20;;
40116;SDS011;25829;50.228;18.936;2024-03-07T07:11:13;24.70;;;15.13;;
40116;SDS011;25829;50.228;18.936;2024-03-07T07:14:15;20.33;;;12.87;;
40116;SDS011;25829;50.228;18.936;2024-03-07T07:17:18;22.87;;;14.47;;
40116;SDS011;25829;50.228;18.936;2024-03-07T07:20:21;25.97;;;15.37;;
40116;SDS011;25829;50.228;18.936;2024-03-07T07:23:24;22.27;;;14.33;;
40116;SDS011;25829;50.228;18.936;2024-03-07T07:26:25;23.13;;;13.93;;
40116;SDS011;25829;50.228;18.936;2024-03-07T07:29:26;21.53;;;13.50;;
40116;SDS011;25829;50.228;18.936;2024-03-07T07:32:27;25.60;;;14.73;;
40116;SDS011;25829;50.228;18.936;2024-03-07T07:35:28;24.57;;;14.13;;
40116;SDS011;25829;50.228;18.936;2024-03-07T07:38:29;23.03;;;15.43;;
40116;SDS011;25829;50.228;18.936;2024-03-07T07:41:31;22.77;;;14.67;;
40116;SDS011;25829;50.228;18.936;2024-03-07T07:44:32;21.43;;;13.97;;
40116;SDS011;25829;50.228;18.936;2024-03-07T07:47:34;21.30;;;13.83;;
40116;SDS011;25829;50.228;18.936;2024-03-07T07:50:37;25.27;;;15.83;;
40116;SDS011;25829;50.228;18.936;2024-03-07T07:53:39;27.40;;;17.03;;
40116;SDS011;25829;50.228;18.936;2024-03-07T07:56:39;24.73;;;16.13;;
40116;SDS011;25829;50.228;18.936;2024-03-07T07:59:40;24.73;;;14.73;;
40116;SDS011;25829;50.228;18.936;2024-03-07T08:02:41;23.83;;;14.73;;
40116;SDS011;25829;50.228;18.936;2024-03-07T08:05:44;22.80;;;14.33;;
40116;SDS011;25829;50.228;18.936;2024-03-07T08:08:47;22.33;;;14.83;;
40116;SDS011;25829;50.228;18.936;2024-03-07T08:11:48;23.83;;;14.50;;
40116;SDS011;25829;50.228;18.936;2024-03-07T08:14:50;23.67;;;13.87;;
40116;SDS011;25829;50.228;18.936;2024-03-07T08:17:51;21.70;;;14.07;;
40116;SDS011;25829;50.228;18.936;2024-03-07T08:20:52;25.73;;;14.97;;
40116;SDS011;25829;50.228;18.936;2024-03-07T08:23:53;25.63;;;14.57;;
40116;SDS011;25829;50.228;18.936;2024-03-07T08:26:55;20.73;;;12.93;;
40116;SDS011;25829;50.228;18.936;2024-03-07T08:29:56;24.13;;;15.07;;
40116;SDS011;25829;50.228;18.936;2024-03-07T08:32:57;19.70;;;13.57;;
40116;SDS011;25829;50.228;18.936;2024-03-07T08:35:59;23.00;;;14.77;;
40116;SDS011;25829;50.228;18.936;2024-03-07T08:39:01;20.57;;;14.33;;
40116;SDS011;25829;50.228;18.936;2024-03-07T08:42:03;21.60;;;14.97;;
40116;SDS011;25829;50.228;18.936;2024-03-07T08:45:07;23.93;;;15.63;;
40116;SDS011;25829;50.228;18.936;2024-03-07T08:48:10;24.90;;;15.13;;
40116;SDS011;25829;50.228;18.936;2024-03-07T08:51:11;21.87;;;14.33;;
40116;SDS011;25829;50.228;18.936;2024-03-07T08:54:12;27.17;;;14.73;;
40116;SDS011;25829;50.228;18.936;2024-03-07T08:57:13;24.30;;;15.40;;
40116;SDS011;25829;50.228;18.936;2024-03-07T09:00:17;22.40;;;15.67;;
40116;SDS011;25829;50.228;18.936;2024-03-07T09:03:25;22.97;;;14.53;;
40116;SDS011;25829;50.228;18.936;2024-03-07T09:06:26;26.23;;;15.27;;
40116;SDS011;25829;50.228;18.936;2024-03-07T09:09:26;22.73;;;14.70;;
40116;SDS011;25829;50.228;18.936;2024-03-07T09:12:27;20.73;;;14.27;;
40116;SDS011;25829;50.228;18.936;2024-03-07T09:15:28;23.03;;;14.43;;
40116;SDS011;25829;50.228;18.936;2024-03-07T09:18:28;21.27;;;14.17;;
40116;SDS011;25829;50.228;18.936;2024-03-07T09:21:29;21.93;;;13.57;;
40116;SDS011;25829;50.228;18.936;2024-03-07T09:24:30;20.40;;;13.70;;
40116;SDS011;25829;50.228;18.936;2024-03-07T09:27:31;22.03;;;14.23;;
40116;SDS011;25829;50.228;18.936;2024-03-07T09:30:32;23.13;;;14.17;;
40116;SDS011;25829;50.228;18.936;2024-03-07T09:33:33;21.77;;;14.47;;
40116;SDS011;25829;50.228;18.936;2024-03-07T09:36:34;22.50;;;15.03;;
40116;SDS011;25829;50.228;18.936;2024-03-07T09:39:35;22.53;;;14.03;;
40116;SDS011;25829;50.228;18.936;2024-03-07T09:42:37;22.37;;;14.10;;
40116;SDS011;25829;50.228;18.936;2024-03-07T09:45:46;21.80;;;14.90;;
40116;SDS011;25829;50.228;18.936;2024-03-07T09:48:48;24.80;;;14.47;;
40116;SDS011;25829;50.228;18.936;2024-03-07T09:51:53;23.50;;;14.47;;
40116;SDS011;25829;50.228;18.936;2024-03-07T09:54:56;25.03;;;15.27;;
40116;SDS011;25829;50.228;18.936;2024-03-07T09:58:00;23.83;;;14.10;;
40116;SDS011;25829;50.228;18.936;2024-03-07T10:01:02;22.40;;;14.73;;
40116;SDS011;25829;50.228;18.936;2024-03-07T10:04:07;25.80;;;15.07;;
40116;SDS011;25829;50.228;18.936;2024-03-07T10:07:12;26.13;;;14.77;;
40116;SDS011;25829;50.228;18.936;2024-03-07T10:10:14;26.07;;;15.57;;
40116;SDS011;25829;50.228;18.936;2024-03-07T10:13:14;22.80;;;14.20;;
40116;SDS011;25829;50.228;18.936;2024-03-07T10:16:17;25.33;;;15.17;;
40116;SDS011;25829;50.228;18.936;2024-03-07T10:19:18;24.63;;;15.33;;
40116;SDS011;25829;50.228;18.936;2024-03-07T10:22:19;22.97;;;15.37;;
40116;SDS011;25829;50.228;18.936;2024-03-07T10:28:52;21.77;;;14.20;;
40116;SDS011;25829;50.228;18.936;2024-03-07T10:31:53;24.93;;;15.17;;
40116;SDS011;25829;50.228;18.936;2024-03-07T10:34:54;24.17;;;14.90;;
40116;SDS011;25829;50.228;18.936;2024-03-07T10:37:56;25.93;;;16.20;;
40116;SDS011;25829;50.228;18.936;2024-03-07T10:41:00;25.00;;;15.47;;
40116;SDS011;25829;50.228;18.936;2024-03-07T10:44:04;23.33;;;15.37;;
40116;SDS011;25829;50.228;18.936;2024-03-07T10:47:07;24.37;;;17.13;;
40116;SDS011;25829;50.228;18.936;2024-03-07T10:59:27;26.07;;;15.53;;
40116;SDS011;25829;50.228;18.936;2024-03-07T11:02:33;23.83;;;14.67;;
40116;SDS011;25829;50.228;18.936;2024-03-07T11:05:46;22.83;;;15.23;;
40116;SDS011;25829;50.228;18.936;2024-03-07T11:08:49;30.57;;;16.67;;
40116;SDS011;25829;50.228;18.936;2024-03-07T11:11:51;27.83;;;16.50;;
40116;SDS011;25829;50.228;18.936;2024-03-07T11:14:53;21.70;;;14.57;;
40116;SDS011;25829;50.228;18.936;2024-03-07T11:17:55;24.57;;;15.83;;
40116;SDS011;25829;50.228;18.936;2024-03-07T11:20:56;25.67;;;16.30;;
40116;SDS011;25829;50.228;18.936;2024-03-07T11:23:58;26.47;;;15.93;;
40116;SDS011;25829;50.228;18.936;2024-03-07T11:26:59;32.73;;;19.57;;
40116;SDS011;25829;50.228;18.936;2024-03-07T11:30:05;38.27;;;20.77;;
40116;SDS011;25829;50.228;18.936;2024-03-07T11:33:09;29.07;;;17.80;;
40116;SDS011;25829;50.228;18.936;2024-03-07T11:36:14;22.30;;;14.10;;
40116;SDS011;25829;50.228;18.936;2024-03-07T11:39:45;25.07;;;15.50;;
40116;SDS011;25829;50.228;18.936;2024-03-07T11:42:48;25.20;;;15.90;;
40116;SDS011;25829;50.228;18.936;2024-03-07T11:45:49;28.07;;;16.43;;
40116;SDS011;25829;50.228;18.936;2024-03-07T11:48:53;25.83;;;15.90;;
40116;SDS011;25829;50.228;18.936;2024-03-07T11:51:59;20.73;;;14.47;;
40116;SDS011;25829;50.228;18.936;2024-03-07T11:55:01;23.43;;;15.63;;
40116;SDS011;25829;50.228;18.936;2024-03-07T11:58:05;25.97;;;15.33;;
40116;SDS011;25829;50.228;18.936;2024-03-07T12:01:06;23.67;;;15.87;;
40116;SDS011;25829;50.228;18.936;2024-03-07T12:04:11;24.40;;;16.17;;
40116;SDS011;25829;50.228;18.936;2024-03-07T12:07:16;29.40;;;17.90;;
40116;SDS011;25829;50.228;18.936;2024-03-07T12:10:22;28.93;;;18.10;;
40116;SDS011;25829;50.228;18.936;2024-03-07T12:13:25;31.83;;;17.30;;
40116;SDS011;25829;50.228;18.936;2024-03-07T12:16:26;27.63;;;16.03;;
40116;SDS011;25829;50.228;18.936;2024-03-07T12:19:27;24.50;;;15.97;;
40116;SDS011;25829;50.228;18.936;2024-03-07T12:22:28;25.40;;;16.47;;
40116;SDS011;25829;50.228;18.936;2024-03-07T12:25:29;28.63;;;17.13;;
40116;SDS011;25829;50.228;18.936;2024-03-07T12:28:31;23.10;;;15.70;;
40116;SDS011;25829;50.228;18.936;2024-03-07T12:31:35;26.93;;;16.10;;
40116;SDS011;25829;50.228;18.936;2024-03-07T12:34:36;27.40;;;16.90;;
40116;SDS011;25829;50.228;18.936;2024-03-07T12:37:41;25.63;;;15.33;;
40116;SDS011;25829;50.228;18.936;2024-03-07T12:40:42;25.37;;;16.23;;
40116;SDS011;25829;50.228;18.936;2024-03-07T12:43:43;28.10;;;16.73;;
40116;SDS011;25829;50.228;18.936;2024-03-07T12:46:48;26.20;;;15.30;;
40116;SDS011;25829;50.228;18.936;2024-03-07T12:49:49;26.13;;;15.70;;
40116;SDS011;25829;50.228;18.936;2024-03-07T12:52:49;28.73;;;17.27;;
40116;SDS011;25829;50.228;18.936;2024-03-07T12:55:51;33.43;;;18.07;;
40116;SDS011;25829;50.228;18.936;2024-03-07T12:58:55;26.80;;;16.80;;
40116;SDS011;25829;50.228;18.936;2024-03-07T13:01:56;28.10;;;15.93;;
40116;SDS011;25829;50.228;18.936;2024-03-07T13:04:57;29.70;;;16.43;;
40116;SDS011;25829;50.228;18.936;2024-03-07T13:07:58;26.80;;;16.67;;
40116;SDS011;25829;50.228;18.936;2024-03-07T13:10:58;25.23;;;15.30;;
40116;SDS011;25829;50.228;18.936;2024-03-07T13:14:00;30.30;;;17.23;;
40116;SDS011;25829;50.228;18.936;2024-03-07T13:17:03;23.37;;;14.00;;
40116;SDS011;25829;50.228;18.936;2024-03-07T13:20:10;24.30;;;14.67;;
40116;SDS011;25829;50.228;18.936;2024-03-07T13:23:12;23.80;;;14.30;;
40116;SDS011;25829;50.228;18.936;2024-03-07T13:26:12;26.63;;;15.13;;
40116;SDS011;25829;50.228;18.936;2024-03-07T13:29:20;25.57;;;15.57;;
40116;SDS011;25829;50.228;18.936;2024-03-07T13:32:24;27.97;;;15.87;;
40116;SDS011;25829;50.228;18.936;2024-03-07T13:35:29;22.20;;;13.07;;
40116;SDS011;25829;50.228;18.936;2024-03-07T13:38:30;25.23;;;15.03;;
40116;SDS011;25829;50.228;18.936;2024-03-07T13:41:30;23.27;;;13.83;;
40116;SDS011;25829;50.228;18.936;2024-03-07T13:44:31;26.50;;;15.10;;
40116;SDS011;25829;50.228;18.936;2024-03-07T13:47:32;29.47;;;15.73;;
40116;SDS011;25829;50.228;18.936;2024-03-07T13:50:33;29.00;;;16.13;;
40116;SDS011;25829;50.228;18.936;2024-03-07T13:53:35;26.60;;;14.10;;
40116;SDS011;25829;50.228;18.936;2024-03-07T13:56:51;24.60;;;14.80;;
40116;SDS011;25829;50.228;18.936;2024-03-07T14:03:45;24.30;;;13.40;;
40116;SDS011;25829;50.228;18.936;2024-03-07T14:37:03;21.30;;;11.93;;
40116;SDS011;25829;50.228;18.936;2024-03-07T14:40:10;17.77;;;11.13;;
40116;SDS011;25829;50.228;18.936;2024-03-07T14:43:14;16.93;;;11.83;;
40116;SDS011;25829;50.228;18.936;2024-03-07T14:46:17;15.47;;;10.87;;
40116;SDS011;25829;50.228;18.936;2024-03-07T14:49:18;19.00;;;11.37;;
40116;SDS011;25829;50.228;18.936;2024-03-07T14:52:19;18.70;;;12.30;;
40116;SDS011;25829;50.228;18.936;2024-03-07T14:55:21;24.30;;;14.30;;
40116;SDS011;25829;50.228;18.936;2024-03-07T14:58:22;24.27;;;12.97;;
40116;SDS011;25829;50.228;18.936;2024-03-07T15:01:23;20.83;;;12.50;;
40116;SDS011;25829;50.228;18.936;2024-03-07T15:04:27;23.40;;;11.50;;
40116;SDS011;25829;50.228;18.936;2024-03-07T15:07:32;28.23;;;14.30;;
40116;SDS011;25829;50.228;18.936;2024-03-07T15:10:36;30.17;;;14.70;;
40116;SDS011;25829;50.228;18.936;2024-03-07T15:13:41;27.43;;;15.17;;
40116;SDS011;25829;50.228;18.936;2024-03-07T15:16:43;18.17;;;11.77;;
40116;SDS011;25829;50.228;18.936;2024-03-07T15:23:00;28.03;;;14.97;;
40116;SDS011;25829;50.228;18.936;2024-03-07T15:26:03;19.40;;;12.50;;
40116;SDS011;25829;50.228;18.936;2024-03-07T15:29:07;22.33;;;12.30;;
40116;SDS011;25829;50.228;18.936;2024-03-07T15:32:08;16.10;;;11.67;;
40116;SDS011;25829;50.228;18.936;2024-03-07T15:35:09;17.73;;;9.87;;
40116;SDS011;25829;50.228;18.936;2024-03-07T15:38:17;16.07;;;10.00;;
40116;SDS011;25829;50.228;18.936;2024-03-07T15:41:19;20.43;;;11.83;;
40116;SDS011;25829;50.228;18.936;2024-03-07T15:44:20;18.10;;;10.40;;
40116;SDS011;25829;50.228;18.936;2024-03-07T15:47:21;17.73;;;10.57;;
40116;SDS011;25829;50.228;18.936;2024-03-07T15:50:21;14.47;;;9.23;;
40116;SDS011;25829;50.228;18.936;2024-03-07T15:53:23;14.43;;;10.47;;
40116;SDS011;25829;50.228;18.936;2024-03-07T15:56:24;18.10;;;10.80;;
40116;SDS011;25829;50.228;18.936;2024-03-07T15:59:25;12.60;;;8.90;;
40116;SDS011;25829;50.228;18.936;2024-03-07T16:02:28;18.43;;;10.87;;
40116;SDS011;25829;50.228;18.936;2024-03-07T16:05:30;16.30;;;10.90;;
40116;SDS011;25829;50.228;18.936;2024-03-07T16:08:32;13.47;;;9.53;;
40116;SDS011;25829;50.228;18.936;2024-03-07T16:11:33;15.33;;;10.33;;
40116;SDS011;25829;50.228;18.936;2024-03-07T16:14:34;17.13;;;10.27;;
40116;SDS011;25829;50.228;18.936;2024-03-07T16:17:35;16.27;;;10.23;;
40116;SDS011;25829;50.228;18.936;2024-03-07T16:20:37;14.87;;;9.63;;
40116;SDS011;25829;50.228;18.936;2024-03-07T16:23:38;16.67;;;10.70;;
40116;SDS011;25829;50.228;18.936;2024-03-07T16:26:40;16.43;;;11.13;;
40116;SDS011;25829;50.228;18.936;2024-03-07T16:29:41;16.87;;;10.20;;
40116;SDS011;25829;50.228;18.936;2024-03-07T16:32:43;17.03;;;9.33;;
40116;SDS011;25829;50.228;18.936;2024-03-07T16:35:47;12.83;;;9.17;;
40116;SDS011;25829;50.228;18.936;2024-03-07T16:38:48;13.77;;;9.63;;
40116;SDS011;25829;50.228;18.936;2024-03-07T16:41:49;13.73;;;9.77;;
40116;SDS011;25829;50.228;18.936;2024-03-07T16:44:49;14.53;;;9.00;;
40116;SDS011;25829;50.228;18.936;2024-03-07T16:47:52;16.50;;;9.20;;
40116;SDS011;25829;50.228;18.936;2024-03-07T16:50:54;15.00;;;9.23;;
40116;SDS011;25829;50.228;18.936;2024-03-07T16:53:54;14.60;;;9.83;;
40116;SDS011;25829;50.228;18.936;2024-03-07T16:57:15;14.77;;;9.37;;
40116;SDS011;25829;50.228;18.936;2024-03-07T17:00:37;16.90;;;9.87;;
40116;SDS011;25829;50.228;18.936;2024-03-07T17:03:39;16.33;;;10.67;;
40116;SDS011;25829;50.228;18.936;2024-03-07T17:06:40;15.73;;;10.00;;
40116;SDS011;25829;50.228;18.936;2024-03-07T17:09:41;14.53;;;10.60;;
40116;SDS011;25829;50.228;18.936;2024-03-07T17:12:46;17.30;;;9.90;;
40116;SDS011;25829;50.228;18.936;2024-03-07T17:15:47;12.33;;;9.67;;
40116;SDS011;25829;50.228;18.936;2024-03-07T17:18:48;15.73;;;10.00;;
40116;SDS011;25829;50.228;18.936;2024-03-07T17:21:49;14.20;;;10.30;;
40116;SDS011;25829;50.228;18.936;2024-03-07T17:24:51;13.70;;;9.27;;
40116;SDS011;25829;50.228;18.936;2024-03-07T17:27:53;14.17;;;10.47;;
40116;SDS011;25829;50.228;18.936;2024-03-07T17:31:03;14.90;;;10.30;;
40116;SDS011;25829;50.228;18.936;2024-03-07T17:34:33;15.53;;;11.20;;
40116;SDS011;25829;50.228;18.936;2024-03-07T17:37:33;16.87;;;10.87;;
40116;SDS011;25829;50.228;18.936;2024-03-07T17:40:36;16.73;;;11.03;;
40116;SDS011;25829;50.228;18.936;2024-03-07T17:43:39;17.30;;;10.53;;
40116;SDS011;25829;50.228;18.936;2024-03-07T17:46:40;15.40;;;11.03;;
40116;SDS011;25829;50.228;18.936;2024-03-07T17:49:42;16.13;;;11.17;;
40116;SDS011;25829;50.228;18.936;2024-03-07T17:52:43;19.93;;;11.47;;
40116;SDS011;25829;50.228;18.936;2024-03-07T17:55:46;20.37;;;12.27;;
40116;SDS011;25829;50.228;18.936;2024-03-07T17:58:46;18.83;;;12.10;;
40116;SDS011;25829;50.228;18.936;2024-03-07T18:01:47;19.30;;;12.40;;
40116;SDS011;25829;50.228;18.936;2024-03-07T18:04:48;22.07;;;13.07;;
40116;SDS011;25829;50.228;18.936;2024-03-07T18:07:51;24.23;;;16.00;;
40116;SDS011;25829;50.228;18.936;2024-03-07T18:10:52;24.67;;;15.33;;
40116;SDS011;25829;50.228;18.936;2024-03-07T18:13:56;24.33;;;15.43;;
40116;SDS011;25829;50.228;18.936;2024-03-07T18:16:58;24.67;;;15.50;;
40116;SDS011;25829;50.228;18.936;2024-03-07T18:20:04;24.23;;;15.10;;
40116;SDS011;25829;50.228;18.936;2024-03-07T18:23:09;19.70;;;12.77;;
40116;SDS011;25829;50.228;18.936;2024-03-07T18:26:10;19.07;;;12.87;;
40116;SDS011;25829;50.228;18.936;2024-03-07T18:29:13;19.40;;;12.43;;